sensor_id;sensor_type;location;lat;lon;timestamp;P1;durP1;ratioP1;P2;durP2;ratioP2
63688;SDS011;54895;40.928;14.480;2023-03-19T00:11:31;34.45;;;21.70;;
63688;SDS011;54895;40.928;14.480;2023-03-19T00:15:24;38.05;;;23.45;;
63688;SDS011;54895;40.928;14.480;2023-03-19T00:19:43;37.97;;;20.70;;
63688;SDS011;54895;40.928;14.480;2023-03-19T00:28:35;31.67;;;19.85;;
63688;SDS011;54895;40.928;14.480;2023-03-19T00:37:58;23.52;;;15.27;;
63688;SDS011;54895;40.928;14.480;2023-03-19T00:42:31;28.33;;;17.20;;
63688;SDS011;54895;40.928;14.480;2023-03-19T00:46:51;28.17;;;16.58;;
63688;SDS011;54895;40.928;14.480;2023-03-19T00:59:26;34.92;;;18.75;;
63688;SDS011;54895;40.928;14.480;2023-03-19T01:01:55;31.23;;;19.65;;
63688;SDS011;54895;40.928;14.480;2023-03-19T01:04:22;33.03;;;19.45;;
63688;SDS011;54895;40.928;14.480;2023-03-19T01:06:48;31.10;;;17.80;;
63688;SDS011;54895;40.928;14.480;2023-03-19T01:09:15;29.95;;;19.42;;
63688;SDS011;54895;40.928;14.480;2023-03-19T01:11:42;32.22;;;20.23;;
63688;SDS011;54895;40.928;14.480;2023-03-19T01:14:08;30.75;;;21.10;;
63688;SDS011;54895;40.928;14.480;2023-03-19T01:16:35;35.65;;;20.65;;
63688;SDS011;54895;40.928;14.480;2023-03-19T01:19:02;32.55;;;20.58;;
63688;SDS011;54895;40.928;14.480;2023-03-19T01:21:29;31.15;;;19.00;;
63688;SDS011;54895;40.928;14.480;2023-03-19T01:23:56;31.85;;;20.73;;
63688;SDS011;54895;40.928;14.480;2023-03-19T01:26:24;30.25;;;19.42;;
63688;SDS011;54895;40.928;14.480;2023-03-19T01:28:56;30.60;;;18.75;;
63688;SDS011;54895;40.928;14.480;2023-03-19T01:31:24;31.77;;;19.98;;
63688;SDS011;54895;40.928;14.480;2023-03-19T01:34:15;33.83;;;18.73;;
63688;SDS011;54895;40.928;14.480;2023-03-19T01:37:02;26.75;;;17.40;;
63688;SDS011;54895;40.928;14.480;2023-03-19T01:39:31;31.35;;;19.17;;
63688;SDS011;54895;40.928;14.480;2023-03-19T01:42:00;29.25;;;18.40;;
63688;SDS011;54895;40.928;14.480;2023-03-19T01:44:52;32.90;;;19.90;;
63688;SDS011;54895;40.928;14.480;2023-03-19T01:50:54;37.05;;;20.73;;
63688;SDS011;54895;40.928;14.480;2023-03-19T01:53:33;36.90;;;21.50;;
63688;SDS011;54895;40.928;14.480;2023-03-19T01:56:23;26.75;;;18.88;;
63688;SDS011;54895;40.928;14.480;2023-03-19T02:21:46;25.23;;;13.65;;
63688;SDS011;54895;40.928;14.480;2023-03-19T02:30:23;21.35;;;13.75;;
63688;SDS011;54895;40.928;14.480;2023-03-19T02:38:40;28.17;;;15.63;;
63688;SDS011;54895;40.928;14.480;2023-03-19T02:42:50;24.75;;;14.98;;
63688;SDS011;54895;40.928;14.480;2023-03-19T02:59:43;24.02;;;14.48;;
63688;SDS011;54895;40.928;14.480;2023-03-19T03:02:11;24.50;;;15.68;;
63688;SDS011;54895;40.928;14.480;2023-03-19T03:04:37;23.50;;;14.70;;
63688;SDS011;54895;40.928;14.480;2023-03-19T03:07:04;26.48;;;13.52;;
63688;SDS011;54895;40.928;14.480;2023-03-19T03:09:31;23.75;;;13.90;;
63688;SDS011;54895;40.928;14.480;2023-03-19T03:11:58;20.17;;;12.77;;
63688;SDS011;54895;40.928;14.480;2023-03-19T03:14:24;21.33;;;12.02;;
63688;SDS011;54895;40.928;14.480;2023-03-19T03:16:53;22.88;;;12.45;;
63688;SDS011;54895;40.928;14.480;2023-03-19T03:19:20;21.50;;;12.18;;
63688;SDS011;54895;40.928;14.480;2023-03-19T03:21:46;17.85;;;11.90;;
63688;SDS011;54895;40.928;14.480;2023-03-19T03:24:13;16.88;;;10.52;;
63688;SDS011;54895;40.928;14.480;2023-03-19T03:26:40;16.45;;;9.75;;
63688;SDS011;54895;40.928;14.480;2023-03-19T03:29:07;15.80;;;9.50;;
63688;SDS011;54895;40.928;14.480;2023-03-19T03:31:35;17.23;;;8.40;;
63688;SDS011;54895;40.928;14.480;2023-03-19T03:34:02;16.55;;;8.13;;
63688;SDS011;54895;40.928;14.480;2023-03-19T03:36:30;14.32;;;8.30;;
63688;SDS011;54895;40.928;14.480;2023-03-19T03:38:57;14.23;;;8.23;;
63688;SDS011;54895;40.928;14.480;2023-03-19T03:41:24;14.23;;;8.70;;
63688;SDS011;54895;40.928;14.480;2023-03-19T03:43:51;16.00;;;9.40;;
63688;SDS011;54895;40.928;14.480;2023-03-19T03:46:17;14.48;;;9.85;;
63688;SDS011;54895;40.928;14.480;2023-03-19T03:48:45;14.68;;;8.30;;
63688;SDS011;54895;40.928;14.480;2023-03-19T03:51:14;13.23;;;8.60;;
63688;SDS011;54895;40.928;14.480;2023-03-19T03:53:41;15.65;;;8.80;;
63688;SDS011;54895;40.928;14.480;2023-03-19T03:56:09;14.07;;;8.23;;
63688;SDS011;54895;40.928;14.480;2023-03-19T03:58:36;12.10;;;7.97;;
63688;SDS011;54895;40.928;14.480;2023-03-19T04:01:03;14.32;;;7.60;;
63688;SDS011;54895;40.928;14.480;2023-03-19T04:03:32;10.77;;;7.13;;
63688;SDS011;54895;40.928;14.480;2023-03-19T04:05:59;13.07;;;7.63;;
63688;SDS011;54895;40.928;14.480;2023-03-19T04:08:26;10.20;;;6.88;;
63688;SDS011;54895;40.928;14.480;2023-03-19T04:10:52;11.57;;;7.20;;
63688;SDS011;54895;40.928;14.480;2023-03-19T04:13:19;13.23;;;7.13;;
63688;SDS011;54895;40.928;14.480;2023-03-19T04:15:45;12.05;;;7.40;;
63688;SDS011;54895;40.928;14.480;2023-03-19T04:18:13;13.88;;;7.55;;
63688;SDS011;54895;40.928;14.480;2023-03-19T04:20:40;13.10;;;7.55;;
63688;SDS011;54895;40.928;14.480;2023-03-19T04:23:08;12.60;;;7.68;;
63688;SDS011;54895;40.928;14.480;2023-03-19T04:25:34;13.68;;;8.38;;
63688;SDS011;54895;40.928;14.480;2023-03-19T04:28:05;13.13;;;7.78;;
63688;SDS011;54895;40.928;14.480;2023-03-19T04:30:32;13.75;;;8.50;;
63688;SDS011;54895;40.928;14.480;2023-03-19T04:32:59;18.40;;;8.10;;
63688;SDS011;54895;40.928;14.480;2023-03-19T04:35:26;16.00;;;9.50;;
63688;SDS011;54895;40.928;14.480;2023-03-19T04:37:52;14.25;;;9.50;;
63688;SDS011;54895;40.928;14.480;2023-03-19T04:40:20;16.77;;;10.20;;
63688;SDS011;54895;40.928;14.480;2023-03-19T04:42:48;19.00;;;10.35;;
63688;SDS011;54895;40.928;14.480;2023-03-19T04:45:28;15.70;;;9.57;;
63688;SDS011;54895;40.928;14.480;2023-03-19T04:47:54;18.33;;;9.38;;
63688;SDS011;54895;40.928;14.480;2023-03-19T04:50:21;17.17;;;10.07;;
63688;SDS011;54895;40.928;14.480;2023-03-19T04:52:48;15.38;;;10.18;;
63688;SDS011;54895;40.928;14.480;2023-03-19T04:55:18;18.15;;;10.45;;
63688;SDS011;54895;40.928;14.480;2023-03-19T04:57:54;17.88;;;11.15;;
63688;SDS011;54895;40.928;14.480;2023-03-19T05:00:26;17.05;;;10.80;;
63688;SDS011;54895;40.928;14.480;2023-03-19T05:02:53;18.13;;;10.60;;
63688;SDS011;54895;40.928;14.480;2023-03-19T05:05:19;14.35;;;9.45;;
63688;SDS011;54895;40.928;14.480;2023-03-19T05:07:46;16.42;;;9.43;;
63688;SDS011;54895;40.928;14.480;2023-03-19T05:10:13;12.43;;;7.88;;
63688;SDS011;54895;40.928;14.480;2023-03-19T05:12:39;15.80;;;8.70;;
63688;SDS011;54895;40.928;14.480;2023-03-19T05:15:07;16.45;;;7.85;;
63688;SDS011;54895;40.928;14.480;2023-03-19T05:17:37;15.35;;;8.32;;
63688;SDS011;54895;40.928;14.480;2023-03-19T05:22:55;11.43;;;6.78;;
63688;SDS011;54895;40.928;14.480;2023-03-19T05:25:32;13.10;;;7.25;;
63688;SDS011;54895;40.928;14.480;2023-03-19T05:28:01;15.95;;;9.93;;
63688;SDS011;54895;40.928;14.480;2023-03-19T05:30:28;21.40;;;13.25;;
63688;SDS011;54895;40.928;14.480;2023-03-19T05:33:27;16.98;;;10.32;;
63688;SDS011;54895;40.928;14.480;2023-03-19T05:35:54;13.80;;;9.30;;
63688;SDS011;54895;40.928;14.480;2023-03-19T05:38:28;13.55;;;8.98;;
63688;SDS011;54895;40.928;14.480;2023-03-19T05:41:04;13.02;;;8.35;;
63688;SDS011;54895;40.928;14.480;2023-03-19T05:43:41;22.02;;;10.18;;
63688;SDS011;54895;40.928;14.480;2023-03-19T05:46:16;14.82;;;9.52;;
63688;SDS011;54895;40.928;14.480;2023-03-19T05:48:43;16.02;;;9.10;;
63688;SDS011;54895;40.928;14.480;2023-03-19T05:51:12;21.85;;;9.00;;
63688;SDS011;54895;40.928;14.480;2023-03-19T05:53:42;18.85;;;9.13;;
63688;SDS011;54895;40.928;14.480;2023-03-19T05:56:27;19.13;;;10.10;;
63688;SDS011;54895;40.928;14.480;2023-03-19T05:59:18;16.15;;;9.98;;
63688;SDS011;54895;40.928;14.480;2023-03-19T06:01:54;15.85;;;9.13;;
63688;SDS011;54895;40.928;14.480;2023-03-19T06:04:21;16.23;;;8.82;;
63688;SDS011;54895;40.928;14.480;2023-03-19T06:06:47;16.42;;;8.68;;
63688;SDS011;54895;40.928;14.480;2023-03-19T06:09:14;13.70;;;8.60;;
63688;SDS011;54895;40.928;14.480;2023-03-19T06:11:43;16.08;;;8.95;;
63688;SDS011;54895;40.928;14.480;2023-03-19T06:14:27;13.45;;;7.70;;
63688;SDS011;54895;40.928;14.480;2023-03-19T06:17:14;14.80;;;10.00;;
63688;SDS011;54895;40.928;14.480;2023-03-19T06:19:41;13.60;;;8.73;;
63688;SDS011;54895;40.928;14.480;2023-03-19T06:22:08;17.00;;;9.60;;
63688;SDS011;54895;40.928;14.480;2023-03-19T06:24:35;14.48;;;8.70;;
63688;SDS011;54895;40.928;14.480;2023-03-19T06:27:01;12.77;;;9.02;;
63688;SDS011;54895;40.928;14.480;2023-03-19T06:29:28;14.60;;;9.18;;
63688;SDS011;54895;40.928;14.480;2023-03-19T06:32:01;14.30;;;8.90;;
63688;SDS011;54895;40.928;14.480;2023-03-19T06:34:40;12.15;;;8.38;;
63688;SDS011;54895;40.928;14.480;2023-03-19T06:37:07;15.15;;;8.60;;
63688;SDS011;54895;40.928;14.480;2023-03-19T06:39:33;13.38;;;7.55;;
63688;SDS011;54895;40.928;14.480;2023-03-19T06:42:00;14.15;;;8.45;;
63688;SDS011;54895;40.928;14.480;2023-03-19T06:44:26;15.35;;;8.30;;
63688;SDS011;54895;40.928;14.480;2023-03-19T06:46:53;13.98;;;8.02;;
63688;SDS011;54895;40.928;14.480;2023-03-19T06:49:20;15.55;;;7.78;;
63688;SDS011;54895;40.928;14.480;2023-03-19T06:51:47;13.70;;;7.93;;
63688;SDS011;54895;40.928;14.480;2023-03-19T06:54:14;14.63;;;8.05;;
63688;SDS011;54895;40.928;14.480;2023-03-19T06:56:40;15.05;;;8.32;;
63688;SDS011;54895;40.928;14.480;2023-03-19T06:59:07;11.40;;;7.65;;
63688;SDS011;54895;40.928;14.480;2023-03-19T07:01:39;16.63;;;8.60;;
63688;SDS011;54895;40.928;14.480;2023-03-19T07:04:06;13.73;;;8.05;;
63688;SDS011;54895;40.928;14.480;2023-03-19T07:06:34;14.23;;;8.88;;
63688;SDS011;54895;40.928;14.480;2023-03-19T07:09:00;11.95;;;8.38;;
63688;SDS011;54895;40.928;14.480;2023-03-19T07:11:27;10.30;;;7.50;;
63688;SDS011;54895;40.928;14.480;2023-03-19T07:13:54;13.20;;;7.93;;
63688;SDS011;54895;40.928;14.480;2023-03-19T07:16:21;11.30;;;7.78;;
63688;SDS011;54895;40.928;14.480;2023-03-19T07:18:47;11.75;;;7.78;;
63688;SDS011;54895;40.928;14.480;2023-03-19T07:21:14;10.75;;;7.35;;
63688;SDS011;54895;40.928;14.480;2023-03-19T07:23:40;11.13;;;7.15;;
63688;SDS011;54895;40.928;14.480;2023-03-19T07:26:07;12.82;;;7.93;;
63688;SDS011;54895;40.928;14.480;2023-03-19T07:28:33;14.95;;;8.80;;
63688;SDS011;54895;40.928;14.480;2023-03-19T07:30:59;14.98;;;8.60;;
63688;SDS011;54895;40.928;14.480;2023-03-19T07:33:26;16.85;;;9.55;;
63688;SDS011;54895;40.928;14.480;2023-03-19T07:35:53;16.60;;;8.63;;
63688;SDS011;54895;40.928;14.480;2023-03-19T07:38:19;12.80;;;8.05;;
63688;SDS011;54895;40.928;14.480;2023-03-19T07:40:46;13.32;;;8.13;;
63688;SDS011;54895;40.928;14.480;2023-03-19T07:43:12;13.40;;;8.15;;
63688;SDS011;54895;40.928;14.480;2023-03-19T07:45:38;17.20;;;9.10;;
63688;SDS011;54895;40.928;14.480;2023-03-19T07:48:05;18.98;;;9.02;;
63688;SDS011;54895;40.928;14.480;2023-03-19T07:50:31;17.92;;;8.63;;
63688;SDS011;54895;40.928;14.480;2023-03-19T07:52:58;15.57;;;8.55;;
63688;SDS011;54895;40.928;14.480;2023-03-19T07:55:24;14.63;;;7.93;;
63688;SDS011;54895;40.928;14.480;2023-03-19T07:57:51;13.88;;;7.75;;
63688;SDS011;54895;40.928;14.480;2023-03-19T08:00:18;14.15;;;7.00;;
63688;SDS011;54895;40.928;14.480;2023-03-19T08:02:44;12.98;;;6.93;;
63688;SDS011;54895;40.928;14.480;2023-03-19T08:05:11;11.82;;;6.53;;
63688;SDS011;54895;40.928;14.480;2023-03-19T08:07:38;9.98;;;5.45;;
63688;SDS011;54895;40.928;14.480;2023-03-19T08:10:04;18.15;;;7.43;;
63688;SDS011;54895;40.928;14.480;2023-03-19T08:12:32;16.55;;;6.85;;
63688;SDS011;54895;40.928;14.480;2023-03-19T08:14:59;11.13;;;5.50;;
63688;SDS011;54895;40.928;14.480;2023-03-19T08:17:26;9.73;;;5.82;;
63688;SDS011;54895;40.928;14.480;2023-03-19T08:19:56;12.02;;;6.43;;
63688;SDS011;54895;40.928;14.480;2023-03-19T08:22:23;9.30;;;6.00;;
63688;SDS011;54895;40.928;14.480;2023-03-19T08:24:50;10.68;;;5.63;;
63688;SDS011;54895;40.928;14.480;2023-03-19T08:27:16;12.05;;;6.32;;
63688;SDS011;54895;40.928;14.480;2023-03-19T08:29:43;12.88;;;7.07;;
63688;SDS011;54895;40.928;14.480;2023-03-19T08:32:09;13.23;;;6.45;;
63688;SDS011;54895;40.928;14.480;2023-03-19T08:34:36;5.95;;;3.90;;
63688;SDS011;54895;40.928;14.480;2023-03-19T08:37:02;12.63;;;4.65;;
63688;SDS011;54895;40.928;14.480;2023-03-19T08:39:29;8.05;;;4.63;;
63688;SDS011;54895;40.928;14.480;2023-03-19T08:41:56;6.57;;;4.10;;
63688;SDS011;54895;40.928;14.480;2023-03-19T08:44:23;6.70;;;3.67;;
63688;SDS011;54895;40.928;14.480;2023-03-19T08:46:50;7.50;;;4.00;;
63688;SDS011;54895;40.928;14.480;2023-03-19T08:49:17;8.68;;;4.85;;
63688;SDS011;54895;40.928;14.480;2023-03-19T08:51:44;6.85;;;4.22;;
63688;SDS011;54895;40.928;14.480;2023-03-19T08:54:11;7.03;;;4.00;;
63688;SDS011;54895;40.928;14.480;2023-03-19T08:56:39;7.03;;;3.70;;
63688;SDS011;54895;40.928;14.480;2023-03-19T08:59:06;9.15;;;4.38;;
63688;SDS011;54895;40.928;14.480;2023-03-19T09:01:33;7.90;;;3.92;;
63688;SDS011;54895;40.928;14.480;2023-03-19T09:03:59;13.77;;;4.45;;
63688;SDS011;54895;40.928;14.480;2023-03-19T09:06:27;7.43;;;3.80;;
63688;SDS011;54895;40.928;14.480;2023-03-19T09:08:54;9.73;;;3.85;;
63688;SDS011;54895;40.928;14.480;2023-03-19T09:11:20;8.27;;;4.07;;
63688;SDS011;54895;40.928;14.480;2023-03-19T09:13:49;8.27;;;3.60;;
63688;SDS011;54895;40.928;14.480;2023-03-19T09:16:15;8.40;;;3.95;;
63688;SDS011;54895;40.928;14.480;2023-03-19T09:18:42;7.32;;;3.22;;
63688;SDS011;54895;40.928;14.480;2023-03-19T09:21:09;10.93;;;3.83;;
63688;SDS011;54895;40.928;14.480;2023-03-19T09:23:36;9.45;;;3.92;;
63688;SDS011;54895;40.928;14.480;2023-03-19T09:26:03;7.80;;;3.53;;
63688;SDS011;54895;40.928;14.480;2023-03-19T09:28:30;7.68;;;3.85;;
63688;SDS011;54895;40.928;14.480;2023-03-19T09:30:57;6.97;;;3.38;;
63688;SDS011;54895;40.928;14.480;2023-03-19T09:33:24;7.00;;;3.60;;
63688;SDS011;54895;40.928;14.480;2023-03-19T09:35:51;6.50;;;3.30;;
63688;SDS011;54895;40.928;14.480;2023-03-19T09:38:19;5.90;;;3.60;;
63688;SDS011;54895;40.928;14.480;2023-03-19T09:40:47;8.30;;;3.53;;
63688;SDS011;54895;40.928;14.480;2023-03-19T09:46:03;10.20;;;3.70;;
63688;SDS011;54895;40.928;14.480;2023-03-19T09:48:38;5.43;;;3.37;;
63688;SDS011;54895;40.928;14.480;2023-03-19T09:51:14;7.45;;;3.33;;
63688;SDS011;54895;40.928;14.480;2023-03-19T09:53:48;7.72;;;3.67;;
63688;SDS011;54895;40.928;14.480;2023-03-19T09:56:21;5.50;;;3.45;;
63688;SDS011;54895;40.928;14.480;2023-03-19T10:23:35;7.55;;;3.65;;
63688;SDS011;54895;40.928;14.480;2023-03-19T10:26:20;8.48;;;3.60;;
63688;SDS011;54895;40.928;14.480;2023-03-19T10:29:00;8.70;;;3.97;;
63688;SDS011;54895;40.928;14.480;2023-03-19T10:31:51;7.97;;;3.35;;
63688;SDS011;54895;40.928;14.480;2023-03-19T10:36:58;8.90;;;3.42;;
63688;SDS011;54895;40.928;14.480;2023-03-19T10:39:31;7.30;;;3.42;;
63688;SDS011;54895;40.928;14.480;2023-03-19T10:44:49;8.18;;;4.13;;
63688;SDS011;54895;40.928;14.480;2023-03-19T10:47:44;8.32;;;3.95;;
63688;SDS011;54895;40.928;14.480;2023-03-19T10:50:16;6.32;;;3.83;;
63688;SDS011;54895;40.928;14.480;2023-03-19T10:53:03;8.05;;;4.18;;
63688;SDS011;54895;40.928;14.480;2023-03-19T10:55:30;7.47;;;2.88;;
63688;SDS011;54895;40.928;14.480;2023-03-19T10:58:01;8.40;;;3.60;;
63688;SDS011;54895;40.928;14.480;2023-03-19T11:00:32;7.13;;;3.45;;
63688;SDS011;54895;40.928;14.480;2023-03-19T11:03:00;8.60;;;3.92;;
63688;SDS011;54895;40.928;14.480;2023-03-19T11:05:33;8.45;;;4.10;;
63688;SDS011;54895;40.928;14.480;2023-03-19T11:08:01;12.10;;;4.50;;
63688;SDS011;54895;40.928;14.480;2023-03-19T11:10:46;11.70;;;4.45;;
63688;SDS011;54895;40.928;14.480;2023-03-19T11:15:41;7.05;;;3.53;;
63688;SDS011;54895;40.928;14.480;2023-03-19T11:18:21;8.15;;;3.63;;
63688;SDS011;54895;40.928;14.480;2023-03-19T11:20:55;8.52;;;3.97;;
63688;SDS011;54895;40.928;14.480;2023-03-19T11:23:28;9.35;;;3.60;;
63688;SDS011;54895;40.928;14.480;2023-03-19T11:25:59;9.02;;;3.55;;
63688;SDS011;54895;40.928;14.480;2023-03-19T11:28:27;5.93;;;3.30;;
63688;SDS011;54895;40.928;14.480;2023-03-19T11:36:29;9.35;;;3.83;;
63688;SDS011;54895;40.928;14.480;2023-03-19T11:39:23;9.70;;;3.92;;
63688;SDS011;54895;40.928;14.480;2023-03-19T12:00:50;6.70;;;3.40;;
63688;SDS011;54895;40.928;14.480;2023-03-19T12:06:13;8.60;;;3.00;;
63688;SDS011;54895;40.928;14.480;2023-03-19T12:08:50;7.30;;;3.63;;
63688;SDS011;54895;40.928;14.480;2023-03-19T12:11:37;7.60;;;3.40;;
63688;SDS011;54895;40.928;14.480;2023-03-19T12:22:53;10.32;;;3.55;;
63688;SDS011;54895;40.928;14.480;2023-03-19T12:30:48;9.57;;;4.40;;
63688;SDS011;54895;40.928;14.480;2023-03-19T12:33:43;12.82;;;4.05;;
63688;SDS011;54895;40.928;14.480;2023-03-19T12:36:40;8.93;;;4.50;;
63688;SDS011;54895;40.928;14.480;2023-03-19T12:39:18;10.77;;;4.60;;
63688;SDS011;54895;40.928;14.480;2023-03-19T12:41:49;7.72;;;4.00;;
63688;SDS011;54895;40.928;14.480;2023-03-19T12:44:18;10.07;;;3.97;;
63688;SDS011;54895;40.928;14.480;2023-03-19T12:49:34;9.85;;;4.03;;
63688;SDS011;54895;40.928;14.480;2023-03-19T12:54:55;8.43;;;4.22;;
63688;SDS011;54895;40.928;14.480;2023-03-19T12:57:30;11.35;;;4.55;;
63688;SDS011;54895;40.928;14.480;2023-03-19T13:03:53;8.10;;;4.03;;
63688;SDS011;54895;40.928;14.480;2023-03-19T13:06:34;9.75;;;4.65;;
63688;SDS011;54895;40.928;14.480;2023-03-19T13:09:04;9.13;;;4.80;;
63688;SDS011;54895;40.928;14.480;2023-03-19T13:20:19;9.30;;;4.00;;
63688;SDS011;54895;40.928;14.480;2023-03-19T13:22:54;9.98;;;4.20;;
63688;SDS011;54895;40.928;14.480;2023-03-19T13:25:24;11.10;;;5.03;;
63688;SDS011;54895;40.928;14.480;2023-03-19T13:27:56;8.98;;;4.18;;
63688;SDS011;54895;40.928;14.480;2023-03-19T13:30:22;8.70;;;4.43;;
63688;SDS011;54895;40.928;14.480;2023-03-19T13:32:51;11.55;;;4.65;;
63688;SDS011;54895;40.928;14.480;2023-03-19T13:46:08;9.13;;;4.97;;
63688;SDS011;54895;40.928;14.480;2023-03-19T13:51:46;9.23;;;4.72;;
63688;SDS011;54895;40.928;14.480;2023-03-19T13:54:14;12.07;;;5.10;;
63688;SDS011;54895;40.928;14.480;2023-03-19T14:01:53;9.27;;;4.47;;
63688;SDS011;54895;40.928;14.480;2023-03-19T14:09:36;8.93;;;4.10;;
63688;SDS011;54895;40.928;14.480;2023-03-19T14:17:31;13.40;;;4.90;;
63688;SDS011;54895;40.928;14.480;2023-03-19T14:20:43;8.30;;;3.80;;
63688;SDS011;54895;40.928;14.480;2023-03-19T14:23:20;9.63;;;4.78;;
63688;SDS011;54895;40.928;14.480;2023-03-19T14:28:52;10.80;;;4.90;;
63688;SDS011;54895;40.928;14.480;2023-03-19T14:31:24;8.43;;;4.28;;
63688;SDS011;54895;40.928;14.480;2023-03-19T14:34:02;10.18;;;3.97;;
63688;SDS011;54895;40.928;14.480;2023-03-19T14:36:46;7.65;;;4.30;;
63688;SDS011;54895;40.928;14.480;2023-03-19T14:39:24;8.80;;;4.05;;
63688;SDS011;54895;40.928;14.480;2023-03-19T14:42:12;6.50;;;3.90;;
63688;SDS011;54895;40.928;14.480;2023-03-19T14:48:04;8.85;;;4.13;;
63688;SDS011;54895;40.928;14.480;2023-03-19T14:55:54;10.43;;;4.28;;
63688;SDS011;54895;40.928;14.480;2023-03-19T15:18:28;9.30;;;3.78;;
63688;SDS011;54895;40.928;14.480;2023-03-19T15:20:58;6.43;;;3.17;;
63688;SDS011;54895;40.928;14.480;2023-03-19T15:23:24;9.82;;;3.90;;
63688;SDS011;54895;40.928;14.480;2023-03-19T15:25:53;11.80;;;3.70;;
63688;SDS011;54895;40.928;14.480;2023-03-19T15:28:30;6.05;;;3.05;;
63688;SDS011;54895;40.928;14.480;2023-03-19T15:31:02;10.30;;;3.80;;
63688;SDS011;54895;40.928;14.480;2023-03-19T15:33:31;13.85;;;2.95;;
63688;SDS011;54895;40.928;14.480;2023-03-19T15:38:38;7.88;;;3.65;;
63688;SDS011;54895;40.928;14.480;2023-03-19T15:41:10;6.20;;;2.33;;
63688;SDS011;54895;40.928;14.480;2023-03-19T15:43:37;7.00;;;3.25;;
63688;SDS011;54895;40.928;14.480;2023-03-19T15:46:06;5.65;;;3.20;;
63688;SDS011;54895;40.928;14.480;2023-03-19T15:48:37;7.45;;;3.35;;
63688;SDS011;54895;40.928;14.480;2023-03-19T15:51:18;8.43;;;3.75;;
63688;SDS011;54895;40.928;14.480;2023-03-19T15:53:47;10.65;;;4.07;;
63688;SDS011;54895;40.928;14.480;2023-03-19T15:56:15;8.88;;;3.28;;
63688;SDS011;54895;40.928;14.480;2023-03-19T16:02:56;11.75;;;3.50;;
63688;SDS011;54895;40.928;14.480;2023-03-19T16:05:23;5.28;;;3.13;;
63688;SDS011;54895;40.928;14.480;2023-03-19T16:07:53;9.50;;;4.03;;
63688;SDS011;54895;40.928;14.480;2023-03-19T16:10:42;8.60;;;4.00;;
63688;SDS011;54895;40.928;14.480;2023-03-19T16:18:48;7.40;;;3.25;;
63688;SDS011;54895;40.928;14.480;2023-03-19T16:23:54;8.48;;;3.22;;
63688;SDS011;54895;40.928;14.480;2023-03-19T16:26:28;10.23;;;3.63;;
63688;SDS011;54895;40.928;14.480;2023-03-19T16:29:06;6.35;;;3.50;;
63688;SDS011;54895;40.928;14.480;2023-03-19T16:31:49;9.20;;;3.33;;
63688;SDS011;54895;40.928;14.480;2023-03-19T16:34:24;9.27;;;3.75;;
63688;SDS011;54895;40.928;14.480;2023-03-19T16:40:34;5.85;;;2.90;;
63688;SDS011;54895;40.928;14.480;2023-03-19T16:43:05;6.95;;;3.20;;
63688;SDS011;54895;40.928;14.480;2023-03-19T16:45:38;9.02;;;3.72;;
63688;SDS011;54895;40.928;14.480;2023-03-19T16:48:05;9.48;;;3.58;;
63688;SDS011;54895;40.928;14.480;2023-03-19T16:50:36;14.50;;;4.60;;
63688;SDS011;54895;40.928;14.480;2023-03-19T16:53:05;9.38;;;4.20;;
63688;SDS011;54895;40.928;14.480;2023-03-19T16:55:53;13.00;;;4.15;;
63688;SDS011;54895;40.928;14.480;2023-03-19T16:58:25;9.13;;;3.65;;
63688;SDS011;54895;40.928;14.480;2023-03-19T17:00:55;9.35;;;4.53;;
63688;SDS011;54895;40.928;14.480;2023-03-19T17:03:22;11.23;;;4.32;;
63688;SDS011;54895;40.928;14.480;2023-03-19T17:05:51;8.05;;;4.32;;
63688;SDS011;54895;40.928;14.480;2023-03-19T17:08:17;9.18;;;3.92;;
63688;SDS011;54895;40.928;14.480;2023-03-19T17:10:47;16.20;;;4.55;;
63688;SDS011;54895;40.928;14.480;2023-03-19T17:13:22;11.38;;;4.35;;
63688;SDS011;54895;40.928;14.480;2023-03-19T17:16:03;9.45;;;4.63;;
63688;SDS011;54895;40.928;14.480;2023-03-19T17:18:35;18.25;;;5.63;;
63688;SDS011;54895;40.928;14.480;2023-03-19T17:21:10;15.15;;;5.53;;
63688;SDS011;54895;40.928;14.480;2023-03-19T17:23:39;13.48;;;4.75;;
63688;SDS011;54895;40.928;14.480;2023-03-19T17:26:22;12.35;;;5.10;;
63688;SDS011;54895;40.928;14.480;2023-03-19T17:28:53;12.23;;;4.72;;
63688;SDS011;54895;40.928;14.480;2023-03-19T17:31:30;11.13;;;5.68;;
63688;SDS011;54895;40.928;14.480;2023-03-19T17:34:11;11.52;;;4.82;;
63688;SDS011;54895;40.928;14.480;2023-03-19T17:36:42;13.73;;;4.43;;
63688;SDS011;54895;40.928;14.480;2023-03-19T17:39:12;9.90;;;4.80;;
63688;SDS011;54895;40.928;14.480;2023-03-19T17:41:38;15.40;;;6.15;;
63688;SDS011;54895;40.928;14.480;2023-03-19T17:44:05;17.13;;;6.65;;
63688;SDS011;54895;40.928;14.480;2023-03-19T17:46:36;11.95;;;6.43;;
63688;SDS011;54895;40.928;14.480;2023-03-19T17:49:07;14.77;;;6.65;;
63688;SDS011;54895;40.928;14.480;2023-03-19T17:51:49;16.90;;;5.70;;
63688;SDS011;54895;40.928;14.480;2023-03-19T17:54:16;14.98;;;6.57;;
63688;SDS011;54895;40.928;14.480;2023-03-19T17:56:43;12.23;;;6.40;;
63688;SDS011;54895;40.928;14.480;2023-03-19T17:59:09;12.55;;;6.22;;
63688;SDS011;54895;40.928;14.480;2023-03-19T18:01:36;13.50;;;6.40;;
63688;SDS011;54895;40.928;14.480;2023-03-19T18:04:05;14.15;;;6.10;;
63688;SDS011;54895;40.928;14.480;2023-03-19T18:06:33;16.98;;;6.13;;
63688;SDS011;54895;40.928;14.480;2023-03-19T18:09:02;12.77;;;5.70;;
63688;SDS011;54895;40.928;14.480;2023-03-19T18:11:28;8.77;;;5.28;;
63688;SDS011;54895;40.928;14.480;2023-03-19T18:13:55;11.35;;;5.60;;
63688;SDS011;54895;40.928;14.480;2023-03-19T18:16:23;12.57;;;6.03;;
63688;SDS011;54895;40.928;14.480;2023-03-19T18:18:55;8.40;;;5.13;;
63688;SDS011;54895;40.928;14.480;2023-03-19T18:21:25;12.25;;;5.53;;
63688;SDS011;54895;40.928;14.480;2023-03-19T18:23:53;13.57;;;5.80;;
63688;SDS011;54895;40.928;14.480;2023-03-19T18:26:19;11.32;;;5.25;;
63688;SDS011;54895;40.928;14.480;2023-03-19T18:28:46;13.85;;;5.80;;
63688;SDS011;54895;40.928;14.480;2023-03-19T18:31:17;9.77;;;5.68;;
63688;SDS011;54895;40.928;14.480;2023-03-19T18:33:47;12.07;;;6.07;;
63688;SDS011;54895;40.928;14.480;2023-03-19T18:36:21;12.38;;;5.55;;
63688;SDS011;54895;40.928;14.480;2023-03-19T18:38:51;16.35;;;7.00;;
63688;SDS011;54895;40.928;14.480;2023-03-19T18:41:21;16.35;;;6.65;;
63688;SDS011;54895;40.928;14.480;2023-03-19T18:44:03;13.43;;;6.75;;
63688;SDS011;54895;40.928;14.480;2023-03-19T18:46:30;10.70;;;6.40;;
63688;SDS011;54895;40.928;14.480;2023-03-19T18:48:59;11.77;;;6.45;;
63688;SDS011;54895;40.928;14.480;2023-03-19T18:51:29;14.82;;;6.65;;
63688;SDS011;54895;40.928;14.480;2023-03-19T18:53:55;17.77;;;7.88;;
63688;SDS011;54895;40.928;14.480;2023-03-19T18:58:57;19.00;;;9.15;;
63688;SDS011;54895;40.928;14.480;2023-03-19T19:01:25;15.25;;;9.20;;
63688;SDS011;54895;40.928;14.480;2023-03-19T19:03:52;17.58;;;9.90;;
63688;SDS011;54895;40.928;14.480;2023-03-19T19:06:26;14.93;;;8.15;;
63688;SDS011;54895;40.928;14.480;2023-03-19T19:08:57;15.02;;;7.80;;
63688;SDS011;54895;40.928;14.480;2023-03-19T19:11:23;16.38;;;7.70;;
63688;SDS011;54895;40.928;14.480;2023-03-19T19:13:51;16.85;;;9.30;;
63688;SDS011;54895;40.928;14.480;2023-03-19T19:16:32;15.60;;;9.02;;
63688;SDS011;54895;40.928;14.480;2023-03-19T19:19:02;17.60;;;9.60;;